sensor_id;sensor_type;location;lat;lon;timestamp;temperature;humidity
6714;DHT22;3394;51.246;6.792;2023-04-24T00:00:55;9.60;57.60
6714;DHT22;3394;51.246;6.792;2023-04-24T00:01:53;9.70;57.70
6714;DHT22;3394;51.246;6.792;2023-04-24T00:02:52;9.60;57.60
6714;DHT22;3394;51.246;6.792;2023-04-24T00:03:54;9.60;57.30
6714;DHT22;3394;51.246;6.792;2023-04-24T00:04:53;9.60;57.20
6714;DHT22;3394;51.246;6.792;2023-04-24T00:05:51;9.60;57.40
6714;DHT22;3394;51.246;6.792;2023-04-24T00:06:49;9.60;57.60
6714;DHT22;3394;51.246;6.792;2023-04-24T00:07:51;9.60;57.30
6714;DHT22;3394;51.246;6.792;2023-04-24T00:08:50;9.60;57.60
6714;DHT22;3394;51.246;6.792;2023-04-24T00:09:48;9.60;57.40
6714;DHT22;3394;51.246;6.792;2023-04-24T00:10:47;9.60;57.00
6714;DHT22;3394;51.246;6.792;2023-04-24T00:11:45;9.70;57.30
6714;DHT22;3394;51.246;6.792;2023-04-24T00:12:44;9.60;57.10
6714;DHT22;3394;51.246;6.792;2023-04-24T00:13:42;9.60;57.10
6714;DHT22;3394;51.246;6.792;2023-04-24T00:14:40;9.60;56.80
6714;DHT22;3394;51.246;6.792;2023-04-24T00:15:40;9.50;56.60
6714;DHT22;3394;51.246;6.792;2023-04-24T00:16:38;9.60;56.60
6714;DHT22;3394;51.246;6.792;2023-04-24T00:17:36;9.70;56.50
6714;DHT22;3394;51.246;6.792;2023-04-24T00:18:35;9.60;56.40
6714;DHT22;3394;51.246;6.792;2023-04-24T00:19:33;9.60;56.50
6714;DHT22;3394;51.246;6.792;2023-04-24T00:20:31;9.60;56.20
6714;DHT22;3394;51.246;6.792;2023-04-24T00:21:30;9.60;55.60
6714;DHT22;3394;51.246;6.792;2023-04-24T00:22:30;9.60;55.50
6714;DHT22;3394;51.246;6.792;2023-04-24T00:23:28;9.60;55.30
6714;DHT22;3394;51.246;6.792;2023-04-24T00:24:27;9.60;55.50
6714;DHT22;3394;51.246;6.792;2023-04-24T00:25:25;9.60;55.40
6714;DHT22;3394;51.246;6.792;2023-04-24T00:26:24;9.70;55.40
6714;DHT22;3394;51.246;6.792;2023-04-24T00:27:21;9.60;55.00
6714;DHT22;3394;51.246;6.792;2023-04-24T00:28:20;9.70;55.00
6714;DHT22;3394;51.246;6.792;2023-04-24T00:29:18;9.70;54.80
6714;DHT22;3394;51.246;6.792;2023-04-24T00:30:17;9.80;54.80
6714;DHT22;3394;51.246;6.792;2023-04-24T00:31:16;9.80;54.80
6714;DHT22;3394;51.246;6.792;2023-04-24T00:32:15;9.80;54.90
6714;DHT22;3394;51.246;6.792;2023-04-24T00:33:13;9.80;54.50
6714;DHT22;3394;51.246;6.792;2023-04-24T00:34:12;9.80;54.50
6714;DHT22;3394;51.246;6.792;2023-04-24T00:35:10;9.80;54.30
6714;DHT22;3394;51.246;6.792;2023-04-24T00:36:08;9.80;54.50
6714;DHT22;3394;51.246;6.792;2023-04-24T00:37:07;9.90;54.80
6714;DHT22;3394;51.246;6.792;2023-04-24T00:38:05;9.90;54.30
6714;DHT22;3394;51.246;6.792;2023-04-24T00:39:03;9.90;53.90
6714;DHT22;3394;51.246;6.792;2023-04-24T00:40:02;9.90;53.60
6714;DHT22;3394;51.246;6.792;2023-04-24T00:41:00;9.90;53.80
6714;DHT22;3394;51.246;6.792;2023-04-24T00:41:59;9.90;53.60
6714;DHT22;3394;51.246;6.792;2023-04-24T00:42:59;9.90;53.50
6714;DHT22;3394;51.246;6.792;2023-04-24T00:43:57;10.30;52.90
6714;DHT22;3394;51.246;6.792;2023-04-24T00:44:56;9.90;53.60
6714;DHT22;3394;51.246;6.792;2023-04-24T00:45:55;9.90;53.70
6714;DHT22;3394;51.246;6.792;2023-04-24T00:46:54;10.00;52.70
6714;DHT22;3394;51.246;6.792;2023-04-24T00:47:53;10.00;52.80
6714;DHT22;3394;51.246;6.792;2023-04-24T00:48:52;10.00;52.90
6714;DHT22;3394;51.246;6.792;2023-04-24T00:49:50;10.00;52.90
6714;DHT22;3394;51.246;6.792;2023-04-24T00:50:48;10.00;52.80
6714;DHT22;3394;51.246;6.792;2023-04-24T00:51:47;10.00;52.90
6714;DHT22;3394;51.246;6.792;2023-04-24T00:52:46;10.00;52.80
6714;DHT22;3394;51.246;6.792;2023-04-24T00:53:45;10.00;52.80
6714;DHT22;3394;51.246;6.792;2023-04-24T00:54:43;10.00;52.50
6714;DHT22;3394;51.246;6.792;2023-04-24T00:55:42;10.00;52.30
6714;DHT22;3394;51.246;6.792;2023-04-24T00:56:40;10.00;51.50
6714;DHT22;3394;51.246;6.792;2023-04-24T00:57:39;10.00;51.90
6714;DHT22;3394;51.246;6.792;2023-04-24T00:58:37;10.00;51.80
6714;DHT22;3394;51.246;6.792;2023-04-24T00:59:37;10.00;51.90
6714;DHT22;3394;51.246;6.792;2023-04-24T01:00:35;10.00;51.90
6714;DHT22;3394;51.246;6.792;2023-04-24T01:01:34;10.00;52.10
6714;DHT22;3394;51.246;6.792;2023-04-24T01:02:33;10.10;52.30
6714;DHT22;3394;51.246;6.792;2023-04-24T01:03:33;10.00;52.30
6714;DHT22;3394;51.246;6.792;2023-04-24T01:04:31;10.00;52.30
6714;DHT22;3394;51.246;6.792;2023-04-24T01:05:30;10.10;52.70
6714;DHT22;3394;51.246;6.792;2023-04-24T01:06:29;10.10;52.40
6714;DHT22;3394;51.246;6.792;2023-04-24T01:07:29;10.10;52.50
6714;DHT22;3394;51.246;6.792;2023-04-24T01:08:28;10.10;52.40
6714;DHT22;3394;51.246;6.792;2023-04-24T01:09:27;10.00;52.80
6714;DHT22;3394;51.246;6.792;2023-04-24T01:10:26;10.00;52.80
6714;DHT22;3394;51.246;6.792;2023-04-24T01:11:26;10.00;52.80
6714;DHT22;3394;51.246;6.792;2023-04-24T01:12:23;10.00;53.00
6714;DHT22;3394;51.246;6.792;2023-04-24T01:13:22;10.00;53.30
6714;DHT22;3394;51.246;6.792;2023-04-24T01:14:20;10.00;53.30
6714;DHT22;3394;51.246;6.792;2023-04-24T01:15:19;10.00;53.70
6714;DHT22;3394;51.246;6.792;2023-04-24T01:16:17;10.00;53.50
6714;DHT22;3394;51.246;6.792;2023-04-24T01:17:18;10.10;53.70
6714;DHT22;3394;51.246;6.792;2023-04-24T01:18:17;10.00;53.70
6714;DHT22;3394;51.246;6.792;2023-04-24T01:19:16;10.00;54.00
6714;DHT22;3394;51.246;6.792;2023-04-24T01:20:16;10.00;54.00
6714;DHT22;3394;51.246;6.792;2023-04-24T01:21:16;10.00;54.20
6714;DHT22;3394;51.246;6.792;2023-04-24T01:22:16;10.00;54.60
6714;DHT22;3394;51.246;6.792;2023-04-24T01:23:14;10.00;54.70
6714;DHT22;3394;51.246;6.792;2023-04-24T01:24:12;9.90;55.50
6714;DHT22;3394;51.246;6.792;2023-04-24T01:25:11;9.90;55.70
6714;DHT22;3394;51.246;6.792;2023-04-24T01:26:09;9.90;55.60
6714;DHT22;3394;51.246;6.792;2023-04-24T01:27:09;9.90;55.70
6714;DHT22;3394;51.246;6.792;2023-04-24T01:28:07;9.90;56.40
6714;DHT22;3394;51.246;6.792;2023-04-24T01:29:06;9.90;55.50
6714;DHT22;3394;51.246;6.792;2023-04-24T01:30:05;9.90;55.50
6714;DHT22;3394;51.246;6.792;2023-04-24T01:31:04;9.90;56.00
6714;DHT22;3394;51.246;6.792;2023-04-24T01:32:03;9.90;55.10
6714;DHT22;3394;51.246;6.792;2023-04-24T01:33:02;9.90;55.40
6714;DHT22;3394;51.246;6.792;2023-04-24T01:34:00;9.90;55.20
6714;DHT22;3394;51.246;6.792;2023-04-24T01:34:59;9.90;55.10
6714;DHT22;3394;51.246;6.792;2023-04-24T01:35:57;9.90;55.10
6714;DHT22;3394;51.246;6.792;2023-04-24T01:36:56;9.80;55.10
6714;DHT22;3394;51.246;6.792;2023-04-24T01:37:55;9.80;55.00
6714;DHT22;3394;51.246;6.792;2023-04-24T01:38:54;9.80;55.00
6714;DHT22;3394;51.246;6.792;2023-04-24T01:39:52;9.80;55.00
6714;DHT22;3394;51.246;6.792;2023-04-24T01:40:51;9.80;55.30
6714;DHT22;3394;51.246;6.792;2023-04-24T01:41:49;9.80;54.90
6714;DHT22;3394;51.246;6.792;2023-04-24T01:42:49;9.80;54.30
6714;DHT22;3394;51.246;6.792;2023-04-24T01:43:48;9.80;54.50
6714;DHT22;3394;51.246;6.792;2023-04-24T01:44:47;9.70;54.40
6714;DHT22;3394;51.246;6.792;2023-04-24T01:45:45;11.20;54.80
6714;DHT22;3394;51.246;6.792;2023-04-24T01:46:44;9.70;54.70
6714;DHT22;3394;51.246;6.792;2023-04-24T01:47:41;9.70;55.20
6714;DHT22;3394;51.246;6.792;2023-04-24T01:48:41;9.70;55.10
6714;DHT22;3394;51.246;6.792;2023-04-24T01:49:39;9.70;55.30
6714;DHT22;3394;51.246;6.792;2023-04-24T01:50:38;9.70;55.10
6714;DHT22;3394;51.246;6.792;2023-04-24T01:51:36;9.70;55.10
6714;DHT22;3394;51.246;6.792;2023-04-24T01:52:35;9.70;55.50
6714;DHT22;3394;51.246;6.792;2023-04-24T01:53:34;9.60;55.00
6714;DHT22;3394;51.246;6.792;2023-04-24T01:54:33;9.60;55.40
6714;DHT22;3394;51.246;6.792;2023-04-24T01:55:31;9.60;55.00
6714;DHT22;3394;51.246;6.792;2023-04-24T01:56:30;9.50;54.90
6714;DHT22;3394;51.246;6.792;2023-04-24T01:57:29;9.50;55.10
6714;DHT22;3394;51.246;6.792;2023-04-24T01:58:29;10.90;55.60
6714;DHT22;3394;51.246;6.792;2023-04-24T01:59:27;9.40;55.30
6714;DHT22;3394;51.246;6.792;2023-04-24T02:00:26;9.40;54.70
6714;DHT22;3394;51.246;6.792;2023-04-24T02:01:24;9.40;54.90
6714;DHT22;3394;51.246;6.792;2023-04-24T02:02:23;9.30;54.90
6714;DHT22;3394;51.246;6.792;2023-04-24T02:03:21;9.40;55.20
6714;DHT22;3394;51.246;6.792;2023-04-24T02:04:20;9.30;55.40
6714;DHT22;3394;51.246;6.792;2023-04-24T02:05:18;9.30;56.00
6714;DHT22;3394;51.246;6.792;2023-04-24T02:06:16;9.40;55.30
6714;DHT22;3394;51.246;6.792;2023-04-24T02:07:14;9.30;55.40
6714;DHT22;3394;51.246;6.792;2023-04-24T02:08:13;9.20;55.40
6714;DHT22;3394;51.246;6.792;2023-04-24T02:09:12;9.10;55.60
6714;DHT22;3394;51.246;6.792;2023-04-24T02:10:11;9.10;55.90
6714;DHT22;3394;51.246;6.792;2023-04-24T02:11:09;9.10;56.10
6714;DHT22;3394;51.246;6.792;2023-04-24T02:12:08;9.00;56.30
6714;DHT22;3394;51.246;6.792;2023-04-24T02:13:06;9.00;56.40
6714;DHT22;3394;51.246;6.792;2023-04-24T02:14:04;9.80;57.30
6714;DHT22;3394;51.246;6.792;2023-04-24T02:15:03;8.90;56.40
6714;DHT22;3394;51.246;6.792;2023-04-24T02:16:02;8.80;56.20
6714;DHT22;3394;51.246;6.792;2023-04-24T02:17:00;8.80;56.70
6714;DHT22;3394;51.246;6.792;2023-04-24T02:17:59;8.20;56.40
6714;DHT22;3394;51.246;6.792;2023-04-24T02:18:57;8.70;57.00
6714;DHT22;3394;51.246;6.792;2023-04-24T02:19:55;8.70;57.30
6714;DHT22;3394;51.246;6.792;2023-04-24T02:20:54;9.00;57.60
6714;DHT22;3394;51.246;6.792;2023-04-24T02:21:52;8.80;57.50
6714;DHT22;3394;51.246;6.792;2023-04-24T02:22:50;8.60;57.30
6714;DHT22;3394;51.246;6.792;2023-04-24T02:23:49;8.60;57.60
6714;DHT22;3394;51.246;6.792;2023-04-24T02:24:48;8.60;57.60
6714;DHT22;3394;51.246;6.792;2023-04-24T02:25:47;8.60;57.80
6714;DHT22;3394;51.246;6.792;2023-04-24T02:26:45;8.60;57.70
6714;DHT22;3394;51.246;6.792;2023-04-24T02:27:43;8.80;57.40
6714;DHT22;3394;51.246;6.792;2023-04-24T02:28:41;8.60;57.30
6714;DHT22;3394;51.246;6.792;2023-04-24T02:29:40;8.70;57.10
6714;DHT22;3394;51.246;6.792;2023-04-24T02:30:38;8.70;57.00
6714;DHT22;3394;51.246;6.792;2023-04-24T02:31:36;8.70;56.80
6714;DHT22;3394;51.246;6.792;2023-04-24T02:32:34;8.60;56.70
6714;DHT22;3394;51.246;6.792;2023-04-24T02:33:33;8.70;56.70
6714;DHT22;3394;51.246;6.792;2023-04-24T02:34:31;8.60;56.60
6714;DHT22;3394;51.246;6.792;2023-04-24T02:35:29;8.60;56.60
6714;DHT22;3394;51.246;6.792;2023-04-24T02:36:27;8.60;56.80
6714;DHT22;3394;51.246;6.792;2023-04-24T02:37:26;8.60;57.10
6714;DHT22;3394;51.246;6.792;2023-04-24T02:38:24;8.60;57.00
6714;DHT22;3394;51.246;6.792;2023-04-24T02:39:22;8.60;57.00
6714;DHT22;3394;51.246;6.792;2023-04-24T02:40:22;8.60;57.00
6714;DHT22;3394;51.246;6.792;2023-04-24T02:41:20;8.60;57.20
6714;DHT22;3394;51.246;6.792;2023-04-24T02:42:18;8.60;57.00
6714;DHT22;3394;51.246;6.792;2023-04-24T02:43:17;8.60;57.20
6714;DHT22;3394;51.246;6.792;2023-04-24T02:44:15;8.60;57.30
6714;DHT22;3394;51.246;6.792;2023-04-24T02:45:14;8.70;57.30
6714;DHT22;3394;51.246;6.792;2023-04-24T02:46:12;8.60;57.30
6714;DHT22;3394;51.246;6.792;2023-04-24T02:47:11;8.60;57.60
6714;DHT22;3394;51.246;6.792;2023-04-24T02:48:09;8.60;57.80
6714;DHT22;3394;51.246;6.792;2023-04-24T02:49:07;8.60;57.80
6714;DHT22;3394;51.246;6.792;2023-04-24T02:50:07;8.60;57.90
6714;DHT22;3394;51.246;6.792;2023-04-24T02:51:05;8.60;57.90
6714;DHT22;3394;51.246;6.792;2023-04-24T02:52:04;8.60;58.00
6714;DHT22;3394;51.246;6.792;2023-04-24T02:53:02;8.80;58.30
6714;DHT22;3394;51.246;6.792;2023-04-24T02:54:00;8.60;58.20
6714;DHT22;3394;51.246;6.792;2023-04-24T02:54:59;8.60;58.10
6714;DHT22;3394;51.246;6.792;2023-04-24T02:55:58;8.60;58.20
6714;DHT22;3394;51.246;6.792;2023-04-24T02:56:57;8.60;58.40
6714;DHT22;3394;51.246;6.792;2023-04-24T02:57:55;9.80;59.90
6714;DHT22;3394;51.246;6.792;2023-04-24T02:58:53;8.60;58.80
6714;DHT22;3394;51.246;6.792;2023-04-24T02:59:51;8.60;58.50
6714;DHT22;3394;51.246;6.792;2023-04-24T03:00:53;8.60;58.60
6714;DHT22;3394;51.246;6.792;2023-04-24T03:01:51;8.60;58.80
6714;DHT22;3394;51.246;6.792;2023-04-24T03:02:50;8.60;58.90
6714;DHT22;3394;51.246;6.792;2023-04-24T03:03:47;8.60;59.60
6714;DHT22;3394;51.246;6.792;2023-04-24T03:04:46;8.60;58.90
6714;DHT22;3394;51.246;6.792;2023-04-24T03:05:45;8.50;58.80
6714;DHT22;3394;51.246;6.792;2023-04-24T03:06:44;8.60;58.90
6714;DHT22;3394;51.246;6.792;2023-04-24T03:07:42;8.50;58.80
6714;DHT22;3394;51.246;6.792;2023-04-24T03:08:41;9.30;59.50
6714;DHT22;3394;51.246;6.792;2023-04-24T03:09:38;8.50;58.80
6714;DHT22;3394;51.246;6.792;2023-04-24T03:10:37;8.50;58.80
6714;DHT22;3394;51.246;6.792;2023-04-24T03:11:36;8.50;58.80
6714;DHT22;3394;51.246;6.792;2023-04-24T03:12:35;8.50;58.80
6714;DHT22;3394;51.246;6.792;2023-04-24T03:13:33;8.50;58.80
6714;DHT22;3394;51.246;6.792;2023-04-24T03:14:32;8.50;58.80
6714;DHT22;3394;51.246;6.792;2023-04-24T03:15:30;8.50;58.80
6714;DHT22;3394;51.246;6.792;2023-04-24T03:16:28;8.50;58.80
6714;DHT22;3394;51.246;6.792;2023-04-24T03:17:26;8.50;58.80
6714;DHT22;3394;51.246;6.792;2023-04-24T03:18:25;9.60;59.70
6714;DHT22;3394;51.246;6.792;2023-04-24T03:19:23;8.40;58.70
6714;DHT22;3394;51.246;6.792;2023-04-24T03:20:22;8.50;58.80
6714;DHT22;3394;51.246;6.792;2023-04-24T03:21:19;8.50;58.80
6714;DHT22;3394;51.246;6.792;2023-04-24T03:22:18;8.50;58.80
6714;DHT22;3394;51.246;6.792;2023-04-24T03:23:16;8.50;58.80
6714;DHT22;3394;51.246;6.792;2023-04-24T03:24:15;8.50;58.80
6714;DHT22;3394;51.246;6.792;2023-04-24T03:25:12;8.40;58.70
6714;DHT22;3394;51.246;6.792;2023-04-24T03:26:11;8.40;58.70
6714;DHT22;3394;51.246;6.792;2023-04-24T03:27:10;8.50;58.80
6714;DHT22;3394;51.246;6.792;2023-04-24T03:28:09;8.60;58.90
6714;DHT22;3394;51.246;6.792;2023-04-24T03:29:07;8.40;58.80
6714;DHT22;3394;51.246;6.792;2023-04-24T03:30:07;8.40;58.70
6714;DHT22;3394;51.246;6.792;2023-04-24T03:31:05;8.40;58.70
6714;DHT22;3394;51.246;6.792;2023-04-24T03:32:03;8.40;58.70
6714;DHT22;3394;51.246;6.792;2023-04-24T03:33:01;8.50;58.80
6714;DHT22;3394;51.246;6.792;2023-04-24T03:34:00;8.40;58.70
6714;DHT22;3394;51.246;6.792;2023-04-24T03:34:58;8.40;58.80
6714;DHT22;3394;51.246;6.792;2023-04-24T03:35:57;8.40;58.70
6714;DHT22;3394;51.246;6.792;2023-04-24T03:36:54;8.40;58.70
6714;DHT22;3394;51.246;6.792;2023-04-24T03:37:53;8.40;58.70
6714;DHT22;3394;51.246;6.792;2023-04-24T03:38:51;8.40;58.70
6714;DHT22;3394;51.246;6.792;2023-04-24T03:39:49;8.40;58.70
6714;DHT22;3394;51.246;6.792;2023-04-24T03:40:47;8.50;58.80
6714;DHT22;3394;51.246;6.792;2023-04-24T03:41:46;8.50;58.80
6714;DHT22;3394;51.246;6.792;2023-04-24T03:42:45;8.50;58.80
6714;DHT22;3394;51.246;6.792;2023-04-24T03:43:44;8.40;58.70
6714;DHT22;3394;51.246;6.792;2023-04-24T03:44:42;8.40;58.50
6714;DHT22;3394;51.246;6.792;2023-04-24T03:45:40;8.50;58.80
6714;DHT22;3394;51.246;6.792;2023-04-24T03:46:38;8.60;58.70
6714;DHT22;3394;51.246;6.792;2023-04-24T03:47:37;8.70;58.60
6714;DHT22;3394;51.246;6.792;2023-04-24T03:48:35;8.50;58.80
6714;DHT22;3394;51.246;6.792;2023-04-24T03:49:33;8.40;58.70
6714;DHT22;3394;51.246;6.792;2023-04-24T03:50:31;8.40;58.30
6714;DHT22;3394;51.246;6.792;2023-04-24T03:51:30;8.40;58.70
6714;DHT22;3394;51.246;6.792;2023-04-24T03:52:29;8.40;58.70
6714;DHT22;3394;51.246;6.792;2023-04-24T03:53:27;8.40;58.60
6714;DHT22;3394;51.246;6.792;2023-04-24T03:54:25;8.50;58.10
6714;DHT22;3394;51.246;6.792;2023-04-24T03:55:24;8.40;57.90
6714;DHT22;3394;51.246;6.792;2023-04-24T03:56:22;8.40;57.90
6714;DHT22;3394;51.246;6.792;2023-04-24T03:57:20;8.30;57.90
6714;DHT22;3394;51.246;6.792;2023-04-24T03:58:20;8.40;57.80
6714;DHT22;3394;51.246;6.792;2023-04-24T03:59:19;8.40;57.90
6714;DHT22;3394;51.246;6.792;2023-04-24T04:00:17;8.40;58.20
6714;DHT22;3394;51.246;6.792;2023-04-24T04:01:16;8.40;58.20
6714;DHT22;3394;51.246;6.792;2023-04-24T04:02:13;8.40;58.50
6714;DHT22;3394;51.246;6.792;2023-04-24T04:03:12;8.40;58.30
6714;DHT22;3394;51.246;6.792;2023-04-24T04:04:11;8.40;57.90
6714;DHT22;3394;51.246;6.792;2023-04-24T04:05:09;8.50;57.90
6714;DHT22;3394;51.246;6.792;2023-04-24T04:06:07;8.40;57.90
6714;DHT22;3394;51.246;6.792;2023-04-24T04:07:08;8.40;57.90
6714;DHT22;3394;51.246;6.792;2023-04-24T04:08:06;8.40;58.10
6714;DHT22;3394;51.246;6.792;2023-04-24T04:09:05;8.40;58.20
6714;DHT22;3394;51.246;6.792;2023-04-24T04:10:03;8.40;57.90
6714;DHT22;3394;51.246;6.792;2023-04-24T04:11:02;8.40;58.00
6714;DHT22;3394;51.246;6.792;2023-04-24T04:12:00;8.40;57.90
6714;DHT22;3394;51.246;6.792;2023-04-24T04:12:58;8.40;57.90
6714;DHT22;3394;51.246;6.792;2023-04-24T04:13:58;8.40;57.80
6714;DHT22;3394;51.246;6.792;2023-04-24T04:14:57;8.40;57.90
6714;DHT22;3394;51.246;6.792;2023-04-24T04:15:55;8.40;57.90
6714;DHT22;3394;51.246;6.792;2023-04-24T04:16:54;8.40;57.90
6714;DHT22;3394;51.246;6.792;2023-04-24T04:17:51;8.40;57.90
6714;DHT22;3394;51.246;6.792;2023-04-24T04:18:50;8.40;57.70
6714;DHT22;3394;51.246;6.792;2023-04-24T04:19:48;8.40;57.80
6714;DHT22;3394;51.246;6.792;2023-04-24T04:20:47;8.40;57.90
6714;DHT22;3394;51.246;6.792;2023-04-24T04:21:44;8.50;58.00
6714;DHT22;3394;51.246;6.792;2023-04-24T04:22:48;8.30;57.80
6714;DHT22;3394;51.246;6.792;2023-04-24T04:23:45;8.40;57.90
6714;DHT22;3394;51.246;6.792;2023-04-24T04:24:44;8.40;58.00
6714;DHT22;3394;51.246;6.792;2023-04-24T04:25:43;8.40;58.10
6714;DHT22;3394;51.246;6.792;2023-04-24T04:26:42;8.50;57.70
6714;DHT22;3394;51.246;6.792;2023-04-24T04:27:43;8.40;57.50
6714;DHT22;3394;51.246;6.792;2023-04-24T04:28:42;8.40;57.50
6714;DHT22;3394;51.246;6.792;2023-04-24T04:29:43;8.40;57.50
6714;DHT22;3394;51.246;6.792;2023-04-24T04:30:42;8.40;57.50
6714;DHT22;3394;51.246;6.792;2023-04-24T04:31:39;8.40;57.60
6714;DHT22;3394;51.246;6.792;2023-04-24T04:32:38;8.40;57.90
6714;DHT22;3394;51.246;6.792;2023-04-24T04:33:36;8.40;57.80
6714;DHT22;3394;51.246;6.792;2023-04-24T04:34:36;8.40;57.90
6714;DHT22;3394;51.246;6.792;2023-04-24T04:35:35;8.40;58.00
6714;DHT22;3394;51.246;6.792;2023-04-24T04:36:33;8.40;58.10
6714;DHT22;3394;51.246;6.792;2023-04-24T04:37:34;8.40;58.70
6714;DHT22;3394;51.246;6.792;2023-04-24T04:38:32;8.40;58.80
6714;DHT22;3394;51.246;6.792;2023-04-24T04:39:31;8.40;59.40
6714;DHT22;3394;51.246;6.792;2023-04-24T04:40:29;8.40;59.50
6714;DHT22;3394;51.246;6.792;2023-04-24T04:41:27;8.40;59.50
6714;DHT22;3394;51.246;6.792;2023-04-24T04:42:26;8.40;59.70
6714;DHT22;3394;51.246;6.792;2023-04-24T04:43:24;8.30;60.00
6714;DHT22;3394;51.246;6.792;2023-04-24T04:44:23;8.30;60.20
6714;DHT22;3394;51.246;6.792;2023-04-24T04:45:23;8.30;60.50
6714;DHT22;3394;51.246;6.792;2023-04-24T04:46:21;8.30;61.00
6714;DHT22;3394;51.246;6.792;2023-04-24T04:47:23;8.30;61.00
6714;DHT22;3394;51.246;6.792;2023-04-24T04:48:22;8.30;60.50
6714;DHT22;3394;51.246;6.792;2023-04-24T04:49:20;8.30;60.00
6714;DHT22;3394;51.246;6.792;2023-04-24T04:50:19;8.30;60.00
6714;DHT22;3394;51.246;6.792;2023-04-24T04:51:17;8.30;60.10
6714;DHT22;3394;51.246;6.792;2023-04-24T04:52:15;8.30;60.20
6714;DHT22;3394;51.246;6.792;2023-04-24T04:53:14;8.20;60.20
6714;DHT22;3394;51.246;6.792;2023-04-24T04:54:13;8.20;60.50
6714;DHT22;3394;51.246;6.792;2023-04-24T04:55:11;8.20;60.20
6714;DHT22;3394;51.246;6.792;2023-04-24T04:56:10;8.20;60.80
6714;DHT22;3394;51.246;6.792;2023-04-24T04:57:08;8.20;59.80
6714;DHT22;3394;51.246;6.792;2023-04-24T04:58:07;8.20;59.70
6714;DHT22;3394;51.246;6.792;2023-04-24T04:59:05;8.20;59.80
6714;DHT22;3394;51.246;6.792;2023-04-24T05:00:04;8.20;59.80
6714;DHT22;3394;51.246;6.792;2023-04-24T05:01:04;8.20;59.80
6714;DHT22;3394;51.246;6.792;2023-04-24T05:02:04;8.20;60.80
6714;DHT22;3394;51.246;6.792;2023-04-24T05:03:02;8.20;61.40
6714;DHT22;3394;51.246;6.792;2023-04-24T05:04:00;8.20;61.90
6714;DHT22;3394;51.246;6.792;2023-04-24T05:04:58;8.20;62.70
6714;DHT22;3394;51.246;6.792;2023-04-24T05:05:57;8.20;63.30
6714;DHT22;3394;51.246;6.792;2023-04-24T05:06:55;8.20;64.40
6714;DHT22;3394;51.246;6.792;2023-04-24T05:07:54;8.10;65.70
6714;DHT22;3394;51.246;6.792;2023-04-24T05:08:52;8.10;66.40
6714;DHT22;3394;51.246;6.792;2023-04-24T05:09:54;8.00;67.40
6714;DHT22;3394;51.246;6.792;2023-04-24T05:10:52;8.00;68.00
6714;DHT22;3394;51.246;6.792;2023-04-24T05:11:50;7.90;69.00
6714;DHT22;3394;51.246;6.792;2023-04-24T05:12:48;7.80;69.60
6714;DHT22;3394;51.246;6.792;2023-04-24T05:13:47;7.80;70.20
6714;DHT22;3394;51.246;6.792;2023-04-24T05:14:45;7.70;70.90
6714;DHT22;3394;51.246;6.792;2023-04-24T05:15:44;7.70;71.60
6714;DHT22;3394;51.246;6.792;2023-04-24T05:16:43;7.70;72.10
6714;DHT22;3394;51.246;6.792;2023-04-24T05:17:42;7.70;72.70
6714;DHT22;3394;51.246;6.792;2023-04-24T05:18:39;7.60;72.90
6714;DHT22;3394;51.246;6.792;2023-04-24T05:19:38;7.60;73.60
6714;DHT22;3394;51.246;6.792;2023-04-24T05:20:36;7.60;73.60
6714;DHT22;3394;51.246;6.792;2023-04-24T05:21:35;7.60;73.30
6714;DHT22;3394;51.246;6.792;2023-04-24T05:22:34;7.60;73.10
6714;DHT22;3394;51.246;6.792;2023-04-24T05:23:31;7.60;73.00
6714;DHT22;3394;51.246;6.792;2023-04-24T05:24:30;7.60;72.80
6714;DHT22;3394;51.246;6.792;2023-04-24T05:25:28;7.60;72.80
6714;DHT22;3394;51.246;6.792;2023-04-24T05:26:29;7.60;72.80
6714;DHT22;3394;51.246;6.792;2023-04-24T05:27:27;7.60;72.50
6714;DHT22;3394;51.246;6.792;2023-04-24T05:28:26;7.60;72.40
6714;DHT22;3394;51.246;6.792;2023-04-24T05:29:25;7.60;72.60
6714;DHT22;3394;51.246;6.792;2023-04-24T05:30:24;7.60;72.80
6714;DHT22;3394;51.246;6.792;2023-04-24T05:31:23;7.60;72.70
6714;DHT22;3394;51.246;6.792;2023-04-24T05:32:22;7.60;71.90
6714;DHT22;3394;51.246;6.792;2023-04-24T05:33:21;7.60;71.40
6714;DHT22;3394;51.246;6.792;2023-04-24T05:34:19;7.70;71.60
6714;DHT22;3394;51.246;6.792;2023-04-24T05:35:18;7.70;71.60
6714;DHT22;3394;51.246;6.792;2023-04-24T05:36:16;7.70;71.60
6714;DHT22;3394;51.246;6.792;2023-04-24T05:37:14;7.70;71.60
6714;DHT22;3394;51.246;6.792;2023-04-24T05:38:12;7.80;71.60
6714;DHT22;3394;51.246;6.792;2023-04-24T05:39:11;7.80;71.20
6714;DHT22;3394;51.246;6.792;2023-04-24T05:40:10;7.80;70.40
6714;DHT22;3394;51.246;6.792;2023-04-24T05:41:09;7.80;69.90
6714;DHT22;3394;51.246;6.792;2023-04-24T05:42:07;7.80;69.20
6714;DHT22;3394;51.246;6.792;2023-04-24T05:43:05;7.90;68.70
6714;DHT22;3394;51.246;6.792;2023-04-24T05:44:03;7.90;67.60
6714;DHT22;3394;51.246;6.792;2023-04-24T05:45:03;7.90;67.40
6714;DHT22;3394;51.246;6.792;2023-04-24T05:46:01;7.90;67.40
6714;DHT22;3394;51.246;6.792;2023-04-24T05:46:59;7.90;67.30
6714;DHT22;3394;51.246;6.792;2023-04-24T05:47:59;8.00;67.40
6714;DHT22;3394;51.246;6.792;2023-04-24T05:48:58;8.00;67.40
6714;DHT22;3394;51.246;6.792;2023-04-24T05:49:56;8.00;67.40
6714;DHT22;3394;51.246;6.792;2023-04-24T05:50:54;8.00;67.40
6714;DHT22;3394;51.246;6.792;2023-04-24T05:51:52;8.00;67.40
6714;DHT22;3394;51.246;6.792;2023-04-24T05:52:51;8.10;67.80
6714;DHT22;3394;51.246;6.792;2023-04-24T05:53:49;8.00;68.80
6714;DHT22;3394;51.246;6.792;2023-04-24T05:54:47;8.00;69.70
6714;DHT22;3394;51.246;6.792;2023-04-24T05:55:47;8.00;70.60
6714;DHT22;3394;51.246;6.792;2023-04-24T05:56:46;7.90;71.20
6714;DHT22;3394;51.246;6.792;2023-04-24T05:57:44;7.90;71.80
6714;DHT22;3394;51.246;6.792;2023-04-24T05:58:43;7.90;72.80
6714;DHT22;3394;51.246;6.792;2023-04-24T05:59:41;7.80;73.50
6714;DHT22;3394;51.246;6.792;2023-04-24T06:00:39;7.90;74.10
6714;DHT22;3394;51.246;6.792;2023-04-24T06:01:40;7.80;74.40
6714;DHT22;3394;51.246;6.792;2023-04-24T06:02:39;7.80;75.00
6714;DHT22;3394;51.246;6.792;2023-04-24T06:03:38;7.70;75.70
6714;DHT22;3394;51.246;6.792;2023-04-24T06:04:37;7.70;76.10
6714;DHT22;3394;51.246;6.792;2023-04-24T06:05:35;7.70;76.50
6714;DHT22;3394;51.246;6.792;2023-04-24T06:06:35;7.70;77.20
6714;DHT22;3394;51.246;6.792;2023-04-24T06:07:32;7.70;77.70
6714;DHT22;3394;51.246;6.792;2023-04-24T06:08:31;7.60;78.10
6714;DHT22;3394;51.246;6.792;2023-04-24T06:09:30;7.70;78.80
6714;DHT22;3394;51.246;6.792;2023-04-24T06:10:28;7.60;79.10
6714;DHT22;3394;51.246;6.792;2023-04-24T06:11:27;7.60;80.00
6714;DHT22;3394;51.246;6.792;2023-04-24T06:12:25;7.60;80.30
6714;DHT22;3394;51.246;6.792;2023-04-24T06:13:24;7.60;80.30
6714;DHT22;3394;51.246;6.792;2023-04-24T06:14:22;7.60;80.90
6714;DHT22;3394;51.246;6.792;2023-04-24T06:15:21;7.70;81.30
6714;DHT22;3394;51.246;6.792;2023-04-24T06:16:19;7.50;80.80
6714;DHT22;3394;51.246;6.792;2023-04-24T06:17:18;7.50;80.80
6714;DHT22;3394;51.246;6.792;2023-04-24T06:18:16;7.50;80.80
6714;DHT22;3394;51.246;6.792;2023-04-24T06:19:16;7.50;81.00
6714;DHT22;3394;51.246;6.792;2023-04-24T06:20:14;7.40;81.10
6714;DHT22;3394;51.246;6.792;2023-04-24T06:21:13;7.40;81.40
6714;DHT22;3394;51.246;6.792;2023-04-24T06:22:11;7.40;81.80
6714;DHT22;3394;51.246;6.792;2023-04-24T06:23:09;7.30;81.60
6714;DHT22;3394;51.246;6.792;2023-04-24T06:24:08;7.40;81.80
6714;DHT22;3394;51.246;6.792;2023-04-24T06:25:06;7.30;82.20
6714;DHT22;3394;51.246;6.792;2023-04-24T06:26:05;7.40;82.50
6714;DHT22;3394;51.246;6.792;2023-04-24T06:27:03;7.40;82.40
6714;DHT22;3394;51.246;6.792;2023-04-24T06:28:02;7.40;82.40
6714;DHT22;3394;51.246;6.792;2023-04-24T06:29:00;7.30;82.80